Terminal Aerodrome Forecast
Issued by NWS

Home | Current Version | Previous Version | Graphics & Text | Print | Product List | Glossary On
Versions: 1 2 3 4 5 6 7 8 9 10 11 12 13
418
FTUS43 KABR 131738
TAFATY
TAF
KATY 131738Z 1318/1418 18016G22KT P6SM SCT080
     FM132300 17010KT P6SM FEW250
     FM140700 20007KT P6SM FEW250
     FM141500 25004KT P6SM FEW250=

USA.gov is the U.S. government's official web portal to all federal, state and local government web resources and services.